Time;durP1;ratioP1;P1;durP2;ratioP2;P2;SDS_P1;SDS_P2;PMS_P1;PMS_P2;Temp;Humidity;BMP_temperature;BMP_pressure;BME280_temperature;BME280_humidity;BME280_pressure;Samples;Min_cycle;Max_cycle;Signal;HPM_P1;HPM_P2
2023/05/17 00:02:14;;;;;;;12.70;4.83;;;10.40;99.90;;;;;;7284688;19;20716;-91
2023/05/17 00:04:40;;;;;;;19.53;5.40;;;10.40;99.90;;;;;;7283288;19;20178;-90
2023/05/17 00:07:14;;;;;;;15.97;5.10;;;10.40;99.90;;;;;;7304640;19;20193;-90
2023/05/17 00:09:58;;;;;;;12.43;5.23;;;10.40;99.90;;;;;;7289214;19;20195;-91
2023/05/17 00:12:29;;;;;;;15.53;5.17;;;10.40;99.90;;;;;;7289870;19;20194;-90
2023/05/17 00:14:55;;;;;;;14.53;5.13;;;10.30;99.90;;;;;;7290337;19;20203;-90
2023/05/17 00:17:21;;;;;;;18.90;6.00;;;10.30;99.90;;;;;;7290595;19;20210;-90
2023/05/17 00:19:47;;;;;;;12.47;5.00;;;10.20;99.90;;;;;;7290752;19;20190;-90
2023/05/17 00:22:12;;;;;;;16.00;5.20;;;10.10;99.90;;;;;;7291078;19;20189;-91
2023/05/17 00:24:38;;;;;;;14.60;5.40;;;10.00;99.90;;;;;;7291035;19;20980;-91
2023/05/17 00:27:04;;;;;;;16.63;5.60;;;10.00;99.90;;;;;;7313600;19;20684;-90
2023/05/17 00:29:32;;;;;;;15.43;5.47;;;10.00;99.90;;;;;;7291948;19;20211;-91
2023/05/17 00:31:58;;;;;;;14.83;5.53;;;10.00;99.90;;;;;;7290422;19;20197;-91
2023/05/17 00:34:24;;;;;;;19.43;5.40;;;10.10;99.90;;;;;;7291164;19;20194;-91
2023/05/17 00:36:50;;;;;;;17.43;5.70;;;10.00;99.90;;;;;;7289746;19;20229;-91
2023/05/17 00:39:16;;;;;;;13.33;5.70;;;10.00;99.90;;;;;;7290964;19;20182;-91
2023/05/17 00:41:42;;;;;;;18.23;6.07;;;10.00;99.90;;;;;;7286532;19;20186;-92
2023/05/17 00:44:08;;;;;;;16.73;6.03;;;10.00;99.90;;;;;;7290615;19;20181;-91
2023/05/17 00:46:33;;;;;;;14.87;5.53;;;10.00;99.90;;;;;;7314495;19;20194;-92
2023/05/17 00:48:59;;;;;;;16.20;5.77;;;10.00;99.90;;;;;;7293446;19;20186;-90
2023/05/17 00:51:25;;;;;;;18.70;6.33;;;10.00;99.90;;;;;;7289657;19;20687;-90
2023/05/17 00:53:51;;;;;;;15.33;5.30;;;10.00;99.90;;;;;;7291888;19;20194;-89
2023/05/17 00:56:17;;;;;;;12.43;5.07;;;10.00;99.90;;;;;;7291689;19;20230;-90
2023/05/17 00:58:43;;;;;;;14.73;5.60;;;9.90;99.90;;;;;;7291013;19;20198;-90
2023/05/17 01:01:09;;;;;;;17.57;6.37;;;9.80;99.90;;;;;;7291681;19;20212;-90
2023/05/17 01:03:35;;;;;;;20.70;6.60;;;9.80;99.90;;;;;;7312725;19;20706;-91
2023/05/17 01:06:01;;;;;;;22.97;6.77;;;9.80;99.90;;;;;;7291665;19;20927;-91
2023/05/17 01:08:28;;;;;;;20.53;6.43;;;9.90;99.90;;;;;;7291228;19;20222;-91
2023/05/17 01:11:04;;;;;;;20.27;6.90;;;9.90;99.90;;;;;;7291390;19;20184;-91
2023/05/17 01:13:39;;;;;;;19.10;6.70;;;9.90;99.90;;;;;;7292713;19;20218;-91
2023/05/17 01:16:29;;;;;;;17.80;6.03;;;9.90;99.90;;;;;;7290003;19;20191;-90
2023/05/17 01:19:06;;;;;;;16.07;5.73;;;9.80;99.90;;;;;;7187770;19;2004465;-91
2023/05/17 01:21:44;;;;;;;15.63;5.37;;;9.80;99.90;;;;;;7290437;19;20182;-89
2023/05/17 01:24:40;;;;;;;19.13;5.97;;;9.70;99.90;;;;;;7289237;19;20246;-89
2023/05/17 01:27:09;;;;;;;14.90;5.80;;;9.60;99.90;;;;;;7279134;19;20199;-90
2023/05/17 01:29:38;;;;;;;13.17;6.00;;;9.60;99.90;;;;;;7313170;19;20188;-90
2023/05/17 01:32:05;;;;;;;19.40;6.13;;;9.60;99.90;;;;;;7290728;19;20216;-90
2023/05/17 01:34:30;;;;;;;15.07;5.43;;;9.60;99.90;;;;;;7291009;19;20192;-90
2023/05/17 01:36:57;;;;;;;19.90;6.47;;;9.60;99.90;;;;;;7290514;19;20211;-90
2023/05/17 01:39:22;;;;;;;17.33;6.70;;;9.70;99.90;;;;;;7289954;19;20193;-90
2023/05/17 01:42:29;;;;;;;20.07;6.40;;;9.70;99.90;;;;;;7289391;19;20200;-90
2023/05/17 01:45:10;;;;;;;21.70;7.17;;;9.80;99.90;;;;;;7185127;19;2004392;-89
2023/05/17 01:47:40;;;;;;;17.03;6.17;;;9.80;99.90;;;;;;7290088;19;20216;-91
2023/05/17 01:50:09;;;;;;;15.23;6.03;;;9.80;99.90;;;;;;7283357;19;20189;-90
2023/05/17 01:52:44;;;;;;;21.40;6.37;;;9.80;99.90;;;;;;7311994;19;20282;-89
2023/05/17 01:55:31;;;;;;;15.30;5.87;;;9.70;99.90;;;;;;7268710;19;20667;-90
2023/05/17 01:58:00;;;;;;;11.47;5.07;;;9.60;99.90;;;;;;7287457;19;20214;-90
2023/05/17 02:00:28;;;;;;;16.93;6.30;;;9.60;99.90;;;;;;7290465;19;20213;-90
2023/05/17 02:02:54;;;;;;;13.53;5.40;;;9.60;99.90;;;;;;7291072;19;20210;-90
2023/05/17 02:05:20;;;;;;;12.90;5.73;;;9.50;99.90;;;;;;7288209;19;20189;-89
2023/05/17 02:07:45;;;;;;;18.33;7.20;;;9.50;99.90;;;;;;7289820;19;20209;-91
2023/05/17 02:10:11;;;;;;;20.53;7.53;;;9.50;99.90;;;;;;7289517;19;20214;-90
2023/05/17 02:12:42;;;;;;;17.10;7.07;;;9.70;99.90;;;;;;7288024;19;20190;-90
2023/05/17 02:15:10;;;;;;;24.03;7.63;;;9.80;99.90;;;;;;7289631;19;20188;-90
2023/05/17 02:17:39;;;;;;;21.30;8.13;;;9.80;99.90;;;;;;7289556;19;20669;-90
2023/05/17 02:20:09;;;;;;;18.33;7.77;;;9.90;99.90;;;;;;7311590;19;20182;-89
2023/05/17 02:22:35;;;;;;;23.60;8.20;;;9.90;99.90;;;;;;7288174;19;20184;-90
2023/05/17 02:25:01;;;;;;;21.33;6.80;;;9.90;99.90;;;;;;7287957;19;20208;-89
2023/05/17 02:27:27;;;;;;;18.50;7.33;;;9.70;99.90;;;;;;7289727;19;20721;-90
2023/05/17 02:29:53;;;;;;;18.13;7.30;;;9.50;99.90;;;;;;7287751;19;20193;-90
2023/05/17 02:32:19;;;;;;;17.90;6.27;;;9.40;99.90;;;;;;7288024;19;20545;-90
2023/05/17 02:34:45;;;;;;;14.50;6.03;;;9.30;99.90;;;;;;7288124;19;20200;-89
2023/05/17 02:37:11;;;;;;;12.43;5.13;;;9.30;99.90;;;;;;7287735;19;20185;-90
2023/05/17 02:39:36;;;;;;;13.53;5.37;;;9.10;99.90;;;;;;7303308;19;20222;-90
2023/05/17 02:42:05;;;;;;;19.27;6.40;;;8.90;99.90;;;;;;7309239;19;20244;-91
2023/05/17 02:44:31;;;;;;;16.00;5.37;;;8.90;99.90;;;;;;7288957;19;20209;-90
2023/05/17 02:46:57;;;;;;;21.17;6.30;;;8.90;99.90;;;;;;7288121;19;20194;-89
2023/05/17 02:49:23;;;;;;;17.47;5.47;;;9.00;99.90;;;;;;7288098;19;20810;-91
2023/05/17 02:51:49;;;;;;;14.87;5.33;;;9.00;99.90;;;;;;7287793;19;20202;-90
2023/05/17 02:54:14;;;;;;;14.13;5.67;;;8.90;99.90;;;;;;7288834;19;20219;-90
2023/05/17 02:56:40;;;;;;;16.10;5.53;;;8.80;99.90;;;;;;7287118;19;20305;-91
2023/05/17 02:59:06;;;;;;;16.10;6.87;;;8.80;99.90;;;;;;7304762;19;20192;-91
2023/05/17 03:01:33;;;;;;;21.73;7.60;;;8.90;99.90;;;;;;7310973;19;20172;-91
2023/05/17 03:03:59;;;;;;;21.17;6.80;;;9.10;99.90;;;;;;7287164;19;20202;-90
2023/05/17 03:06:26;;;;;;;16.83;6.53;;;9.20;99.90;;;;;;7289260;19;22662;-90
2023/05/17 03:08:52;;;;;;;18.63;7.00;;;9.20;99.90;;;;;;7288467;19;20192;-91
2023/05/17 03:11:18;;;;;;;17.23;7.40;;;9.10;99.90;;;;;;7287726;19;20203;-91
2023/05/17 03:13:45;;;;;;;18.37;7.63;;;9.10;99.90;;;;;;7288054;19;20674;-91
2023/05/17 03:16:11;;;;;;;17.63;7.70;;;9.00;99.90;;;;;;7289238;19;20218;-90
2023/05/17 03:18:37;;;;;;;16.53;7.23;;;9.00;99.90;;;;;;7295113;19;20281;-90
2023/05/17 03:21:03;;;;;;;17.97;7.23;;;8.90;99.90;;;;;;7311778;19;20216;-91
2023/05/17 03:23:29;;;;;;;18.37;6.57;;;8.90;99.90;;;;;;7287488;19;20192;-92
2023/05/17 03:26:00;;;;;;;23.23;7.57;;;8.90;99.90;;;;;;7287624;19;20193;-90
2023/05/17 03:28:29;;;;;;;17.70;7.93;;;9.00;99.90;;;;;;7289886;19;20192;-91
2023/05/17 03:30:56;;;;;;;19.40;7.80;;;9.10;99.90;;;;;;7287440;19;21450;-90
2023/05/17 03:33:24;;;;;;;23.23;7.73;;;9.00;99.90;;;;;;7287040;19;20197;-90
2023/05/17 03:35:50;;;;;;;16.20;7.30;;;9.00;99.90;;;;;;7288009;19;20223;-90
2023/05/17 03:38:16;;;;;;;20.37;7.70;;;8.90;99.90;;;;;;7287453;19;20211;-90
2023/05/17 03:40:42;;;;;;;20.47;7.53;;;8.90;99.90;;;;;;7287646;19;20185;-89
2023/05/17 03:43:08;;;;;;;20.50;8.07;;;8.80;99.90;;;;;;7299360;19;20189;-90
2023/05/17 03:45:34;;;;;;;19.73;7.17;;;8.80;99.90;;;;;;7314872;19;20192;-90
2023/05/17 03:48:00;;;;;;;13.97;6.23;;;8.70;99.90;;;;;;7294574;19;20837;-90
2023/05/17 03:50:27;;;;;;;18.27;7.63;;;8.60;99.90;;;;;;7294073;19;20198;-90
2023/05/17 03:52:53;;;;;;;19.77;7.70;;;8.60;99.90;;;;;;7293981;19;20188;-90
2023/05/17 03:55:19;;;;;;;18.30;6.57;;;8.70;99.90;;;;;;7294142;19;20188;-90
2023/05/17 03:57:45;;;;;;;15.00;6.13;;;8.70;99.90;;;;;;7292290;19;20186;-90
2023/05/17 04:00:11;;;;;;;16.17;6.57;;;8.70;99.90;;;;;;7293047;19;20762;-90
2023/05/17 04:02:43;;;;;;;13.77;6.23;;;8.70;99.90;;;;;;7292071;19;20180;-91
2023/05/17 04:05:12;;;;;;;18.80;6.40;;;8.70;99.90;;;;;;7291841;19;20220;-93
2023/05/17 04:07:39;;;;;;;20.47;6.67;;;8.70;99.90;;;;;;7293244;19;20254;-92
2023/05/17 04:10:06;;;;;;;19.83;7.00;;;8.70;99.90;;;;;;7314495;19;20193;-92
2023/05/17 04:12:32;;;;;;;20.47;7.87;;;8.90;99.90;;;;;;7293416;19;20290;-92
2023/05/17 04:14:58;;;;;;;21.33;7.60;;;8.90;99.90;;;;;;7293657;19;20256;-92
2023/05/17 04:17:24;;;;;;;15.57;6.93;;;8.90;99.90;;;;;;7292494;19;20521;-93
2023/05/17 04:19:50;;;;;;;14.40;6.60;;;9.00;99.90;;;;;;7293264;19;20256;-92
2023/05/17 04:22:16;;;;;;;15.33;7.43;;;9.00;99.90;;;;;;7291829;19;20209;-91
2023/05/17 04:24:42;;;;;;;22.03;7.73;;;9.00;99.90;;;;;;7292477;19;20193;-92
2023/05/17 04:27:08;;;;;;;21.80;7.63;;;9.10;99.90;;;;;;7291316;19;20205;-92
2023/05/17 04:29:37;;;;;;;21.93;7.90;;;9.30;99.90;;;;;;7314192;19;20188;-93
2023/05/17 04:32:03;;;;;;;21.97;7.50;;;9.40;99.90;;;;;;7293781;19;20192;-92
2023/05/17 04:34:30;;;;;;;22.87;7.97;;;9.40;99.90;;;;;;7293088;19;20197;-91
2023/05/17 04:36:58;;;;;;;18.10;7.70;;;9.50;99.90;;;;;;7292268;19;20182;-92
2023/05/17 04:39:25;;;;;;;20.53;7.97;;;9.60;99.90;;;;;;7291273;19;20663;-93
2023/05/17 04:41:51;;;;;;;22.47;8.23;;;9.60;99.90;;;;;;7292553;19;20197;-92
2023/05/17 04:44:18;;;;;;;18.27;7.07;;;9.50;99.90;;;;;;7292316;19;20189;-93
2023/05/17 04:46:44;;;;;;;18.90;7.77;;;9.50;99.90;;;;;;7292058;19;20286;-92
2023/05/17 04:49:13;;;;;;;21.93;7.90;;;9.60;99.90;;;;;;7292037;19;20197;-93
2023/05/17 04:51:40;;;;;;;19.43;8.50;;;9.70;99.90;;;;;;7291128;19;20185;-93
2023/05/17 04:54:07;;;;;;;21.53;7.80;;;9.80;99.90;;;;;;7314242;19;20222;-92
2023/05/17 04:56:35;;;;;;;18.90;7.63;;;9.80;99.90;;;;;;7291775;19;20196;-92
2023/05/17 04:59:02;;;;;;;21.73;7.93;;;10.00;99.90;;;;;;7290477;19;20209;-93
2023/05/17 05:01:33;;;;;;;20.40;7.67;;;10.00;99.90;;;;;;7292721;19;20182;-93
2023/05/17 05:04:05;;;;;;;21.20;8.13;;;9.80;99.90;;;;;;7291755;19;20282;-92
2023/05/17 05:06:33;;;;;;;25.63;7.33;;;9.70;99.90;;;;;;7292168;19;20196;-92
2023/05/17 05:09:00;;;;;;;16.13;7.80;;;9.50;99.90;;;;;;7291411;19;20208;-93
2023/05/17 05:11:26;;;;;;;23.30;8.30;;;9.60;99.90;;;;;;7291232;19;20293;-91
2023/05/17 05:13:53;;;;;;;22.87;8.30;;;9.80;99.90;;;;;;7291297;19;20189;-91
2023/05/17 05:16:19;;;;;;;15.00;7.23;;;9.90;99.90;;;;;;7289933;19;20540;-91
2023/05/17 05:18:45;;;;;;;17.27;7.53;;;10.20;99.90;;;;;;7287997;19;20201;-89
2023/05/17 05:21:12;;;;;;;21.70;7.97;;;10.40;99.90;;;;;;7289092;19;20186;-89
2023/05/17 05:23:38;;;;;;;18.47;7.57;;;10.70;99.90;;;;;;7296982;19;20673;-88
2023/05/17 05:26:04;;;;;;;19.53;7.73;;;11.40;99.90;;;;;;7311302;19;20177;-90
2023/05/17 05:28:30;;;;;;;22.10;8.10;;;11.80;99.90;;;;;;7291134;19;20190;-90
2023/05/17 05:30:58;;;;;;;20.10;7.90;;;12.10;99.90;;;;;;7289105;19;20265;-90
2023/05/17 05:33:25;;;;;;;20.17;7.77;;;12.30;99.90;;;;;;7289915;19;20653;-90
2023/05/17 05:35:51;;;;;;;17.60;8.17;;;12.30;99.90;;;;;;7288874;19;20256;-89
2023/05/17 05:38:17;;;;;;;19.20;8.03;;;12.40;99.90;;;;;;7289267;19;20208;-89
2023/05/17 05:40:46;;;;;;;19.27;7.87;;;12.70;99.90;;;;;;7288313;19;20199;-90
2023/05/17 05:43:13;;;;;;;20.13;8.53;;;13.00;99.90;;;;;;7289409;19;20656;-89
2023/05/17 05:45:44;;;;;;;19.77;7.63;;;13.40;99.90;;;;;;7288016;19;20194;-91
2023/05/17 05:48:13;;;;;;;19.10;8.13;;;13.80;99.90;;;;;;7287193;19;20248;-90
2023/05/17 05:50:41;;;;;;;21.07;9.13;;;14.00;99.90;;;;;;7286823;19;20207;-90
2023/05/17 05:53:12;;;;;;;22.70;9.70;;;14.20;99.90;;;;;;7288327;19;20192;-90
2023/05/17 05:55:41;;;;;;;27.97;9.67;;;14.80;99.90;;;;;;7299142;19;20193;-90
2023/05/17 05:58:08;;;;;;;28.10;10.70;;;15.80;99.90;;;;;;7305429;19;20272;-90
2023/05/17 06:00:35;;;;;;;28.13;10.67;;;16.20;99.90;;;;;;7309048;19;20641;-90
2023/05/17 06:03:00;;;;;;;27.23;10.10;;;16.00;99.90;;;;;;7287865;19;20255;-90
2023/05/17 06:05:26;;;;;;;25.70;11.00;;;15.80;99.90;;;;;;7287094;19;20551;-89
2023/05/17 06:07:52;;;;;;;36.53;11.53;;;15.80;99.90;;;;;;7286780;19;20194;-89
2023/05/17 06:10:18;;;;;;;28.70;11.60;;;15.70;99.90;;;;;;7272276;19;20210;-89
2023/05/17 06:12:44;;;;;;;29.30;11.40;;;15.70;99.90;;;;;;7285673;19;20184;-89
2023/05/17 06:15:10;;;;;;;26.83;11.00;;;15.80;99.90;;;;;;7285257;19;20197;-89
2023/05/17 06:17:36;;;;;;;30.50;11.03;;;15.80;99.90;;;;;;7306527;19;20211;-88
2023/05/17 06:20:02;;;;;;;24.33;11.10;;;15.80;99.90;;;;;;7285456;19;20192;-89
2023/05/17 06:22:28;;;;;;;30.90;11.97;;;15.80;99.90;;;;;;7284294;19;20213;-88
2023/05/17 06:24:53;;;;;;;27.10;11.33;;;15.70;99.90;;;;;;7285714;19;20188;-89
2023/05/17 06:27:19;;;;;;;28.57;11.60;;;15.70;99.90;;;;;;7284756;19;20179;-89
2023/05/17 06:29:45;;;;;;;30.57;11.93;;;15.50;99.90;;;;;;7281582;19;20196;-89
2023/05/17 06:32:11;;;;;;;28.13;11.67;;;15.60;99.90;;;;;;7285500;19;20212;-89
2023/05/17 06:34:38;;;;;;;30.03;11.37;;;15.80;99.90;;;;;;7307261;19;20201;-89
2023/05/17 06:37:05;;;;;;;26.20;11.23;;;16.00;99.90;;;;;;7286945;19;20199;-89
2023/05/17 06:39:30;;;;;;;28.57;11.40;;;16.10;99.90;;;;;;7285334;19;20195;-89
2023/05/17 06:41:56;;;;;;;26.03;11.40;;;16.20;99.90;;;;;;7280975;19;20279;-89
2023/05/17 06:44:22;;;;;;;29.77;11.43;;;16.40;99.90;;;;;;7286329;19;20187;-89
2023/05/17 06:46:48;;;;;;;29.97;11.53;;;16.50;99.90;;;;;;7285915;19;20244;-89
2023/05/17 06:49:14;;;;;;;29.93;10.97;;;16.70;99.90;;;;;;7287892;19;20173;-89
2023/05/17 06:51:39;;;;;;;33.37;10.40;;;16.70;99.90;;;;;;7286141;19;20197;-89
2023/05/17 06:54:05;;;;;;;34.10;11.30;;;17.10;99.90;;;;;;7307042;19;20270;-88
2023/05/17 06:56:31;;;;;;;38.70;11.07;;;17.60;99.90;;;;;;7286458;19;20187;-89
2023/05/17 06:58:57;;;;;;;33.13;9.43;;;18.00;99.90;;;;;;7284735;19;20287;-89
2023/05/17 07:01:23;;;;;;;39.93;10.33;;;18.40;99.90;;;;;;7284669;19;20193;-89
2023/05/17 07:03:49;;;;;;;38.57;10.90;;;18.50;99.90;;;;;;7284676;19;20189;-89
2023/05/17 07:06:15;;;;;;;35.67;11.03;;;18.50;99.90;;;;;;7288243;19;20177;-89
2023/05/17 07:08:40;;;;;;;34.47;9.90;;;19.20;99.90;;;;;;7289918;19;20185;-89
2023/05/17 07:11:06;;;;;;;26.93;8.93;;;20.00;99.90;;;;;;7309291;19;20188;-89
2023/05/17 07:13:32;;;;;;;36.00;9.23;;;20.10;99.90;;;;;;7288602;19;20701;-89
2023/05/17 07:15:58;;;;;;;29.60;8.87;;;20.60;99.90;;;;;;7289203;19;20180;-90
2023/05/17 07:18:24;;;;;;;25.47;8.47;;;21.90;99.90;;;;;;7291142;19;20266;-90
2023/05/17 07:20:50;;;;;;;25.07;8.07;;;22.40;99.90;;;;;;7292023;19;20264;-89
2023/05/17 07:23:16;;;;;;;31.30;8.63;;;23.10;99.90;;;;;;7291227;19;20646;-89
2023/05/17 07:25:42;;;;;;;31.33;8.90;;;23.80;99.90;;;;;;7291722;19;20211;-90
2023/05/17 07:28:07;;;;;;;21.90;7.00;;;24.60;99.90;;;;;;7312988;19;20180;-89
2023/05/17 07:30:33;;;;;;;20.67;6.23;;;25.00;99.90;;;;;;7303745;19;20189;-90
2023/05/17 07:32:59;;;;;;;17.23;5.97;;;26.00;99.90;;;;;;7292334;19;20208;-87
2023/05/17 07:35:25;;;;;;;20.27;6.80;;;26.40;99.90;;;;;;7291974;19;20269;-88
2023/05/17 07:37:51;;;;;;;17.97;6.17;;;26.60;99.90;;;;;;7292280;19;20512;-87
2023/05/17 07:40:17;;;;;;;15.10;6.03;;;27.10;99.90;;;;;;7292741;19;20248;-87
2023/05/17 07:42:43;;;;;;;18.67;5.80;;;26.30;99.90;;;;;;7291297;19;20664;-87
2023/05/17 07:45:09;;;;;;;15.02;5.18;;;25.80;99.90;;;;;;7297006;19;20664;-88
2023/05/17 07:47:35;;;;;;;14.60;4.68;;;27.00;99.90;;;;;;7315983;19;20245;-87
2023/05/17 07:50:01;;;;;;;14.63;4.87;;;26.40;99.20;;;;;;7293456;19;20202;-89
2023/05/17 07:52:27;;;;;;;15.75;5.35;;;25.50;99.90;;;;;;7291691;19;21240;-88
2023/05/17 07:54:53;;;;;;;17.93;5.67;;;24.00;99.90;;;;;;7292299;19;20631;-88
2023/05/17 07:57:19;;;;;;;15.10;4.63;;;25.00;99.90;;;;;;7292128;19;20268;-88
2023/05/17 07:59:44;;;;;;;17.73;5.17;;;23.80;99.90;;;;;;7290820;19;20193;-88
2023/05/17 08:02:10;;;;;;;16.77;5.80;;;22.40;99.90;;;;;;7292742;19;20188;-88
2023/05/17 08:04:37;;;;;;;15.87;4.70;;;23.60;99.90;;;;;;7314380;19;20187;-88
2023/05/17 08:07:03;;;;;;;19.97;5.00;;;23.50;99.90;;;;;;7292866;19;20806;-88
2023/05/17 08:09:28;;;;;;;16.13;4.60;;;22.60;99.90;;;;;;7292971;19;20268;-89
2023/05/17 08:11:54;;;;;;;16.07;4.93;;;22.30;99.90;;;;;;7292167;19;20185;-88
2023/05/17 08:14:22;;;;;;;17.93;4.43;;;21.70;99.90;;;;;;7292577;19;20552;-88
2023/05/17 08:16:50;;;;;;;18.47;4.83;;;21.80;99.90;;;;;;7292844;19;20181;-88
2023/05/17 08:19:16;;;;;;;17.20;5.47;;;21.40;99.90;;;;;;7291192;19;20256;-90
2023/05/17 08:21:42;;;;;;;16.27;5.20;;;20.30;99.90;;;;;;7293749;19;20212;-88
2023/05/17 08:24:09;;;;;;;17.13;4.80;;;19.20;99.90;;;;;;7301514;19;20192;-88
2023/05/17 08:26:34;;;;;;;17.43;4.80;;;18.60;99.90;;;;;;7312954;19;20184;-88
2023/05/17 08:29:03;;;;;;;18.63;4.60;;;19.00;99.90;;;;;;7291977;19;20186;-88
2023/05/17 08:31:31;;;;;;;20.50;4.40;;;18.50;99.90;;;;;;7290680;19;20201;-88
2023/05/17 08:33:56;;;;;;;13.50;3.87;;;18.50;99.90;;;;;;7292540;19;20193;-88
2023/05/17 08:36:23;;;;;;;14.40;3.50;;;19.80;99.90;;;;;;7291173;19;20668;-88
2023/05/17 08:38:48;;;;;;;19.07;4.30;;;21.10;99.90;;;;;;7289961;19;20224;-88
2023/05/17 08:41:14;;;;;;;13.57;4.23;;;20.70;99.90;;;;;;7292339;19;20264;-88
2023/05/17 08:43:41;;;;;;;13.77;4.13;;;19.80;99.90;;;;;;7293830;19;20208;-88
2023/05/17 08:46:08;;;;;;;16.80;4.87;;;19.20;99.90;;;;;;7313538;19;20187;-88
2023/05/17 08:48:37;;;;;;;15.40;4.60;;;18.70;99.90;;;;;;7292585;19;20250;-88
2023/05/17 08:51:03;;;;;;;23.67;4.27;;;19.30;99.90;;;;;;7290848;19;20273;-88
2023/05/17 08:53:28;;;;;;;16.43;3.90;;;19.20;99.90;;;;;;7290682;19;20194;-88
2023/05/17 08:55:59;;;;;;;13.30;4.00;;;19.50;99.90;;;;;;7290512;19;20189;-89
2023/05/17 08:58:30;;;;;;;14.50;3.60;;;20.30;99.90;;;;;;7290011;19;20264;-88
2023/05/17 09:00:57;;;;;;;9.87;3.30;;;21.00;99.90;;;;;;7292258;19;20565;-89
2023/05/17 09:03:24;;;;;;;11.57;2.87;;;22.00;99.90;;;;;;7291641;19;20198;-89
2023/05/17 09:05:53;;;;;;;14.63;3.90;;;21.20;99.90;;;;;;7290648;19;20191;-87
2023/05/17 09:08:21;;;;;;;14.80;4.13;;;19.70;99.90;;;;;;7291496;19;20194;-89
2023/05/17 09:10:49;;;;;;;10.40;3.20;;;18.90;99.90;;;;;;7291246;19;20192;-89
2023/05/17 09:13:15;;;;;;;10.40;2.90;;;18.30;99.90;;;;;;7290957;19;20197;-88
2023/05/17 09:15:42;;;;;;;12.23;3.30;;;19.40;99.90;;;;;;7290978;19;20185;-88
2023/05/17 09:18:11;;;;;;;13.67;3.43;;;20.00;99.90;;;;;;7301469;19;20260;-89
2023/05/17 09:20:38;;;;;;;13.23;3.60;;;19.80;99.90;;;;;;7311786;19;20249;-88
2023/05/17 09:23:09;;;;;;;10.83;3.10;;;20.90;99.90;;;;;;7290212;19;20205;-88
2023/05/17 09:25:35;;;;;;;14.13;3.40;;;20.20;99.90;;;;;;7289962;19;20193;-88
2023/05/17 09:28:03;;;;;;;9.77;2.73;;;19.30;99.90;;;;;;7291004;19;21064;-88
2023/05/17 09:30:31;;;;;;;11.20;3.17;;;19.70;99.90;;;;;;7289920;19;20183;-88
2023/05/17 09:33:03;;;;;;;11.33;2.60;;;19.90;99.90;;;;;;7290683;19;22122;-89
2023/05/17 09:35:30;;;;;;;11.97;2.67;;;21.60;99.90;;;;;;7290309;19;20211;-89
2023/05/17 09:38:10;;;;;;;12.13;2.67;;;22.20;99.90;;;;;;7288650;19;20196;-89
2023/05/17 09:40:41;;;;;;;13.17;2.53;;;22.90;99.90;;;;;;7289844;19;20196;-89
2023/05/17 09:43:07;;;;;;;11.00;2.90;;;24.00;99.90;;;;;;7290725;19;20185;-89
2023/05/17 09:45:34;;;;;;;14.37;3.00;;;22.90;99.90;;;;;;7289933;19;20191;-89
2023/05/17 09:48:29;;;;;;;14.97;3.07;;;22.60;99.90;;;;;;7294929;19;20204;-88
2023/05/17 09:50:55;;;;;;;11.50;2.83;;;21.50;99.90;;;;;;7187477;19;2004505;-88
2023/05/17 09:53:24;;;;;;;12.67;3.03;;;21.30;99.90;;;;;;7289984;19;20192;-89
2023/05/17 09:55:53;;;;;;;14.70;3.30;;;21.60;99.90;;;;;;7289900;19;20199;-88
2023/05/17 09:58:19;;;;;;;12.10;2.70;;;21.50;99.90;;;;;;7289160;19;20200;-88
2023/05/17 10:00:52;;;;;;;17.60;3.27;;;21.00;99.90;;;;;;7290040;19;20191;-87
2023/05/17 10:03:19;;;;;;;13.87;2.90;;;20.50;99.90;;;;;;7289057;19;20217;-88
2023/05/17 10:05:46;;;;;;;11.40;2.40;;;19.90;99.90;;;;;;7289158;19;20654;-88
2023/05/17 10:08:14;;;;;;;12.90;3.00;;;20.60;99.90;;;;;;7289717;19;20195;-89
2023/05/17 10:10:41;;;;;;;8.10;2.13;;;21.50;99.90;;;;;;7288179;19;20177;-89
2023/05/17 10:13:11;;;;;;;12.33;2.67;;;21.40;99.90;;;;;;7311799;19;20190;-88
2023/05/17 10:15:39;;;;;;;9.40;2.60;;;20.90;99.90;;;;;;7289937;19;20249;-89
2023/05/17 10:18:08;;;;;;;11.87;2.63;;;22.10;99.90;;;;;;7288100;19;20181;-89
2023/05/17 10:20:34;;;;;;;10.80;2.20;;;23.10;99.90;;;;;;7290189;19;20203;-89
2023/05/17 10:23:02;;;;;;;8.90;2.37;;;23.20;96.70;;;;;;7289455;19;20197;-89
2023/05/17 10:25:29;;;;;;;8.67;2.30;;;23.60;95.50;;;;;;7288171;19;20264;-89
2023/05/17 10:27:56;;;;;;;10.37;2.60;;;23.40;98.10;;;;;;7289619;19;20199;-89
2023/05/17 10:30:22;;;;;;;9.67;2.10;;;21.60;98.00;;;;;;7288160;19;20224;-88
2023/05/17 10:32:49;;;;;;;12.20;2.40;;;21.60;96.50;;;;;;7287918;19;20196;-88
2023/05/17 10:35:16;;;;;;;8.80;2.40;;;21.10;99.90;;;;;;7288749;19;20213;-88
2023/05/17 10:37:42;;;;;;;10.83;2.30;;;21.90;98.90;;;;;;7287491;19;20191;-89
2023/05/17 10:40:12;;;;;;;9.90;2.07;;;22.60;99.50;;;;;;7305808;19;20194;-89
2023/05/17 10:42:41;;;;;;;14.03;2.40;;;22.50;95.60;;;;;;7305959;19;20186;-89
2023/05/17 10:45:08;;;;;;;14.83;2.40;;;21.30;97.00;;;;;;7310128;19;20178;-88
2023/05/17 10:47:34;;;;;;;15.87;2.67;;;21.20;97.30;;;;;;7289565;19;20204;-89
2023/05/17 10:50:02;;;;;;;15.30;2.50;;;22.40;96.70;;;;;;7286664;19;20692;-89
2023/05/17 10:52:27;;;;;;;10.20;2.27;;;23.40;96.10;;;;;;7288919;19;20296;-89
2023/05/17 10:54:53;;;;;;;9.67;1.97;;;24.30;93.10;;;;;;7288822;19;20197;-89
2023/05/17 10:57:30;;;;;;;12.13;2.50;;;24.10;91.00;;;;;;7288035;19;20195;-89
2023/05/17 10:59:59;;;;;;;11.57;2.53;;;24.00;91.50;;;;;;7287730;19;20556;-89
2023/05/17 11:02:30;;;;;;;11.53;2.37;;;23.40;90.50;;;;;;7287883;19;20202;-89
2023/05/17 11:04:56;;;;;;;8.70;2.33;;;23.90;93.80;;;;;;7289053;19;20533;-89
2023/05/17 11:07:33;;;;;;;7.90;2.57;;;24.00;91.40;;;;;;7288783;19;20185;-89
2023/05/17 11:10:02;;;;;;;9.80;2.37;;;23.90;91.10;;;;;;7287434;19;20283;-89
2023/05/17 11:12:46;;;;;;;9.70;2.50;;;24.40;89.50;;;;;;7286750;19;20265;-89
2023/05/17 11:15:16;;;;;;;11.67;2.60;;;24.30;89.70;;;;;;7265993;19;20189;-89
2023/05/17 11:17:42;;;;;;;10.37;2.23;;;24.10;87.90;;;;;;7285954;19;20215;-88
2023/05/17 11:20:13;;;;;;;13.30;3.00;;;24.00;90.20;;;;;;7309218;19;20181;-89
2023/05/17 11:23:03;;;;;;;10.43;2.23;;;23.20;90.30;;;;;;7273243;19;20188;-89
2023/05/17 11:25:34;;;;;;;11.33;2.60;;;21.90;91.60;;;;;;7286770;19;20517;-89
2023/05/17 11:28:16;;;;;;;9.93;2.33;;;21.20;92.90;;;;;;7287911;19;20184;-89
2023/05/17 11:30:46;;;;;;;10.80;2.73;;;22.20;92.30;;;;;;7265076;19;20180;-89
2023/05/17 11:33:12;;;;;;;9.80;2.40;;;22.80;92.00;;;;;;7285690;19;20188;-89
2023/05/17 11:35:38;;;;;;;10.37;2.07;;;23.40;90.50;;;;;;7309242;19;20309;-89
2023/05/17 11:38:18;;;;;;;11.97;2.73;;;24.80;91.40;;;;;;7286365;19;20195;-88
2023/05/17 11:40:45;;;;;;;10.73;2.60;;;23.70;87.00;;;;;;7186169;19;2004507;-88
2023/05/17 11:43:24;;;;;;;11.53;2.30;;;22.50;91.00;;;;;;7288256;19;20189;-88
2023/05/17 11:46:02;;;;;;;11.10;2.40;;;22.00;92.60;;;;;;7287209;19;20647;-89
2023/05/17 11:48:29;;;;;;;10.03;2.50;;;22.30;91.00;;;;;;7286291;19;20209;-88
2023/05/17 11:50:56;;;;;;;6.87;1.73;;;22.70;90.40;;;;;;7285633;19;20312;-89
2023/05/17 11:53:23;;;;;;;10.50;2.20;;;22.90;90.10;;;;;;7286016;19;20269;-90
2023/05/17 11:55:51;;;;;;;8.30;1.63;;;22.60;88.50;;;;;;7285557;19;20200;-90
2023/05/17 11:58:19;;;;;;;9.20;2.20;;;21.40;90.00;;;;;;7287025;19;20636;-90
2023/05/17 12:00:52;;;;;;;10.40;2.00;;;21.30;90.60;;;;;;7286196;19;20220;-90
2023/05/17 12:03:21;;;;;;;11.57;2.27;;;21.20;91.60;;;;;;7291891;19;20556;-90
2023/05/17 12:06:00;;;;;;;15.90;2.17;;;22.00;93.90;;;;;;7292909;19;20200;-90
2023/05/17 12:08:26;;;;;;;8.90;1.73;;;22.60;89.00;;;;;;7296556;19;20193;-90
2023/05/17 12:10:53;;;;;;;8.37;1.73;;;22.30;87.90;;;;;;7292785;19;20184;-90
2023/05/17 12:13:20;;;;;;;11.60;2.20;;;21.80;90.90;;;;;;7293772;19;20181;-90
2023/05/17 12:16:12;;;;;;;10.10;1.80;;;20.90;90.90;;;;;;7293835;19;20228;-91
2023/05/17 12:18:44;;;;;;;8.27;1.70;;;20.70;91.20;;;;;;7288646;19;20216;-90
2023/05/17 12:21:13;;;;;;;9.93;1.67;;;20.50;90.90;;;;;;7292938;19;20226;-90
2023/05/17 12:23:44;;;;;;;6.47;1.60;;;20.30;90.30;;;;;;7307165;19;20215;-91
2023/05/17 12:26:10;;;;;;;7.57;1.33;;;20.10;91.10;;;;;;7294201;19;20190;-89
2023/05/17 12:28:38;;;;;;;9.47;1.87;;;20.00;88.20;;;;;;7314511;19;20191;-89
2023/05/17 12:31:10;;;;;;;10.83;1.80;;;19.80;89.70;;;;;;7292524;19;20253;-89
2023/05/17 12:33:39;;;;;;;9.93;2.10;;;19.70;91.90;;;;;;7291761;19;20579;-90
2023/05/17 12:36:07;;;;;;;12.10;1.83;;;19.70;94.40;;;;;;7292990;19;20181;-88
2023/05/17 12:38:34;;;;;;;8.03;1.97;;;19.90;94.10;;;;;;7291273;19;20647;-91
2023/05/17 12:41:04;;;;;;;12.17;2.50;;;19.60;92.10;;;;;;7291640;19;20193;-89
2023/05/17 12:43:34;;;;;;;11.30;1.90;;;19.40;93.10;;;;;;7291571;19;20184;-88
2023/05/17 12:46:10;;;;;;;11.90;1.87;;;19.40;94.60;;;;;;7291164;19;20189;-89